WXForecasting.com
 MARQUETTE COUNTY, MI  -  Special Weather Statement Special Weather Statement  
Harvey, MI - Weather Station Data
 
Daily Summary for May 29, 2015 Units:  English    Metric   Both
« Previous Day
Next Day »
Daily Weekly Monthly Yearly Custom
  Current: High: Low: Average:
Temperature: 56.2 °F 79.7 °F 56.2 °F 65.3 °F
Dew Point: 54.0 °F 68.0 °F 54.0 °F 58.8 °F
Humidity: 91% 91% 58% 80%
Wind Speed: 1.0mph 8.0mph 0.0mph 1.6mph
Wind Gust: 6.0mph 22.0mph - -
WindNE - - South
Pressure: 29.87 in 29.97 in 29.73 in -
Precipitation: 0.52 in      
Historical Graphs
 
 
Tabular Data for May 29, 2015
Time Temp Dew Point Pressure Wind Wind Speed Wind Gust RH Rain Rate/Hour
00:07 64.4 °F 58.0 °F 29.96 in South 1.0 mph 9.0 mph 79% 0.00 in
00:22 63.9 °F 57.0 °F 29.96 in SSW 2.0 mph 5.0 mph 79% 0.00 in
00:37 63.7 °F 57.0 °F 29.96 in South 5.0 mph 8.0 mph 79% 0.00 in
00:53 63.6 °F 57.0 °F 29.97 in SSE 4.0 mph 6.0 mph 79% 0.00 in
01:08 63.4 °F 56.0 °F 29.96 in South 2.0 mph 5.0 mph 78% 0.00 in
01:23 63.2 °F 56.0 °F 29.96 in South 3.0 mph 7.0 mph 78% 0.00 in
01:38 63.0 °F 56.0 °F 29.96 in SSW 2.0 mph 9.0 mph 79% 0.00 in
01:53 63.1 °F 56.0 °F 29.96 in South 1.0 mph 6.0 mph 78% 0.00 in
02:08 62.9 °F 56.0 °F 29.95 in SSW 3.0 mph 5.0 mph 79% 0.00 in
02:23 62.3 °F 56.0 °F 29.95 in SSW 2.0 mph 5.0 mph 80% 0.00 in
02:38 61.8 °F 56.0 °F 29.95 in South 1.0 mph 6.0 mph 80% 0.00 in
02:53 61.5 °F 56.0 °F 29.95 in Calm   7.0 mph 81% 0.00 in
03:08 61.3 °F 55.0 °F 29.95 in South 2.0 mph 3.0 mph 81% 0.00 in
03:23 61.1 °F 55.0 °F 29.94 in Calm   4.0 mph 81% 0.00 in
03:38 61.0 °F 55.0 °F 29.94 in Calm   5.0 mph 81% 0.00 in
03:55 60.6 °F 55.0 °F 29.94 in Calm   2.0 mph 82% 0.00 in
04:08 60.2 °F 55.0 °F 29.94 in Calm   2.0 mph 82% 0.00 in
04:23 60.3 °F 54.0 °F 29.94 in SSW 1.0 mph 4.0 mph 81% 0.00 in
04:38 60.5 °F 54.0 °F 29.93 in Calm   4.0 mph 80% 0.00 in
04:53 60.3 °F 54.0 °F 29.93 in Calm   2.0 mph 80% 0.00 in
05:08 60.0 °F 54.0 °F 29.93 in Calm   3.0 mph 80% 0.00 in
05:23 59.8 °F 54.0 °F 29.92 in Calm   3.0 mph 80% 0.00 in
05:38 59.6 °F 54.0 °F 29.92 in Calm   2.0 mph 81% 0.00 in
05:53 59.0 °F 54.0 °F 29.91 in Calm   1.0 mph 83% 0.00 in
06:10 58.4 °F 54.0 °F 29.91 in Calm   1.0 mph 84% 0.00 in
06:23 58.6 °F 54.0 °F 29.90 in Calm   3.0 mph 83% 0.00 in
06:38 59.0 °F 54.0 °F 29.90 in Calm   4.0 mph 83% 0.00 in
06:53 58.7 °F 54.0 °F 29.90 in SSW 1.0 mph 3.0 mph 84% 0.00 in
07:08 59.1 °F 54.0 °F 29.90 in Calm   2.0 mph 84% 0.00 in
07:23 60.0 °F 55.0 °F 29.89 in SSW 1.0 mph 3.0 mph 82% 0.00 in
07:38 61.2 °F 55.0 °F 29.89 in Calm   6.0 mph 80% 0.00 in
07:53 61.5 °F 55.0 °F 29.88 in SW 1.0 mph 8.0 mph 80% 0.00 in
08:11 61.9 °F 55.0 °F 29.88 in SSE 4.0 mph 6.0 mph 79% 0.00 in
08:24 62.2 °F 56.0 °F 29.88 in South 1.0 mph 8.0 mph 79% 0.00 in
08:38 62.5 °F 56.0 °F 29.88 in SSW 1.0 mph 7.0 mph 79% 0.00 in
08:56 62.9 °F 56.0 °F 29.87 in SSW 1.0 mph 8.0 mph 79% 0.00 in
09:09 63.2 °F 57.0 °F 29.87 in SSW 2.0 mph 7.0 mph 79% 0.00 in
09:24 63.6 °F 57.0 °F 29.87 in SW 2.0 mph 9.0 mph 78% 0.00 in
09:39 64.0 °F 57.0 °F 29.87 in SSW 1.0 mph 11.0 mph 78% 0.00 in
09:54 64.4 °F 57.0 °F 29.86 in SW 1.0 mph 6.0 mph 78% 0.00 in
10:09 65.0 °F 58.0 °F 29.86 in SSW 2.0 mph 8.0 mph 78% 0.00 in
10:24 65.6 °F 58.0 °F 29.86 in SSW 4.0 mph 7.0 mph 77% 0.00 in
10:39 65.7 °F 58.0 °F 29.86 in South 1.0 mph 11.0 mph 77% 0.00 in
10:54 66.1 °F 59.0 °F 29.85 in SE 1.0 mph 10.0 mph 77% 0.00 in
11:09 66.2 °F 59.0 °F 29.85 in South 2.0 mph 9.0 mph 77% 0.00 in
11:24 66.2 °F 59.0 °F 29.85 in South 1.0 mph 9.0 mph 78% 0.00 in
11:39 66.5 °F 59.0 °F 29.85 in SSW 6.0 mph 11.0 mph 77% 0.00 in
11:54 66.8 °F 60.0 °F 29.84 in South 1.0 mph 9.0 mph 78% 0.00 in
12:09 68.8 °F 61.0 °F 29.84 in SSW 2.0 mph 12.0 mph 77% 0.00 in
12:24 71.1 °F 62.0 °F 29.83 in ESE 6.0 mph 12.0 mph 72% 0.00 in
12:39 70.7 °F 61.0 °F 29.82 in South 3.0 mph 13.0 mph 72% 0.00 in
12:54 71.9 °F 62.0 °F 29.82 in SW 3.0 mph 12.0 mph 72% 0.00 in
13:09 73.6 °F 64.0 °F 29.81 in SSW 4.0 mph 13.0 mph 71% 0.00 in
13:24 75.9 °F 64.0 °F 29.80 in SSE 4.0 mph 14.0 mph 67% 0.00 in
13:39 76.9 °F 63.0 °F 29.79 in South 8.0 mph 22.0 mph 63% 0.00 in
13:55 78.1 °F 64.0 °F 29.78 in SSE 5.0 mph 13.0 mph 62% 0.00 in
14:10 79.0 °F 64.0 °F 29.78 in South 7.0 mph 14.0 mph 61% 0.02 in
14:25 79.7 °F 64.0 °F 29.77 in SSE 4.0 mph 13.0 mph 58% 0.02 in
14:40 78.9 °F 64.0 °F 29.76 in South 6.0 mph 13.0 mph 61% 0.02 in
14:55 77.8 °F 64.0 °F 29.76 in South 1.0 mph 16.0 mph 62% 0.02 in
15:10 78.1 °F 64.0 °F 29.75 in South 3.0 mph 10.0 mph 63% 0.00 in
15:25 79.5 °F 64.0 °F 29.75 in Calm   12.0 mph 60% 0.00 in
15:40 79.2 °F 64.0 °F 29.74 in South 5.0 mph 12.0 mph 60% 0.00 in
15:55 75.7 °F 68.0 °F 29.74 in Calm   12.0 mph 76% 0.07 in
16:10 72.4 °F 67.0 °F 29.73 in Calm   1.0 mph 84% 0.07 in
16:25 71.0 °F 67.0 °F 29.77 in SW 2.0 mph 2.0 mph 87% 0.10 in
16:40 69.2 °F 66.0 °F 29.74 in Calm   3.0 mph 89% 0.45 in
16:55 69.6 °F 67.0 °F 29.75 in SSE 1.0 mph 5.0 mph 90% 0.38 in
17:10 69.8 °F 67.0 °F 29.76 in Calm   1.0 mph 90% 0.38 in
17:25 69.9 °F 67.0 °F 29.77 in Calm   2.0 mph 90% 0.34 in
17:40 69.6 °F 66.0 °F 29.77 in SSE 2.0 mph 6.0 mph 88% 0.00 in
17:55 65.6 °F 62.0 °F 29.77 in Calm   5.0 mph 87% 0.00 in
18:10 65.1 °F 62.0 °F 29.77 in Calm     90% 0.00 in
18:25 65.9 °F 63.0 °F 29.78 in NE 1.0 mph 1.0 mph 91% 0.00 in
18:40 66.0 °F 63.0 °F 29.78 in NE 2.0 mph 3.0 mph 91% 0.00 in
18:55 65.4 °F 63.0 °F 29.78 in Calm   3.0 mph 90% 0.00 in
19:10 64.6 °F 62.0 °F 29.78 in SE 1.0 mph 3.0 mph 90% 0.00 in
19:25 63.8 °F 61.0 °F 29.79 in Calm   2.0 mph 90% 0.00 in
19:40 62.8 °F 60.0 °F 29.79 in Calm   2.0 mph 90% 0.00 in
19:55 62.3 °F 60.0 °F 29.80 in Calm   2.0 mph 91% 0.00 in
20:10 61.9 °F 59.0 °F 29.82 in Calm   1.0 mph 91% 0.00 in
20:25 61.6 °F 59.0 °F 29.82 in Calm   2.0 mph 91% 0.00 in
20:40 61.1 °F 59.0 °F 29.82 in Calm   2.0 mph 91% 0.00 in
20:55 60.4 °F 58.0 °F 29.83 in ESE 1.0 mph 3.0 mph 91% 0.00 in
21:10 58.6 °F 56.0 °F 29.83 in NW 1.0 mph 3.0 mph 91% 0.01 in
21:25 58.4 °F 56.0 °F 29.84 in WNW 4.0 mph 8.0 mph 91% 0.02 in
21:40 57.5 °F 55.0 °F 29.86 in NW 2.0 mph 5.0 mph 91% 0.04 in
21:55 56.8 °F 54.0 °F 29.86 in NNW 1.0 mph 4.0 mph 91% 0.04 in
22:10 56.2 °F 54.0 °F 29.87 in NE 1.0 mph 6.0 mph 91% 0.04 in
Compliments of Weather Underground

5 Visitors online right now
Max visitors today: 19 at 07:56 pm EDT
This month: 93 at 05-14-2015 03:07 am EDT
This year: 93 at 05-14-2015 03:07 am EDT
All time: 104 at 01-04-2012 03:34 am EST
See Who is Online